Arcola, Virginia
Current Conditions -  °F | °C
As of 4:52 PM on Thursday 23 Oct 2014 (Local Time) from KIAD Reporting Station
Scattered Clouds Scattered Clouds  
Wind Chill: 62°   Ceiling: Unl
Heat Index: 62°   Visibility: 10mi
Dew Point: 43°   Wind: 16mph
Humidity: 50%   Direction: 320°NW
Pressure: 29.88"   Gusts: 26mph
Location:  38.95°N, 77.53°W
Report Text: KIAD 232052Z 32014G23KT 10SM SCT045 SCT065 17/06 A2988 RMK AO2 PK WND 33028/1953 SLP117 T01670061 50000
Loading
Personal Weather Stations






























Interactive Weather Map
Tropical Storm Tracking
New forecast layout! Learn more

10-Day Weather Forecast

Advertisements
Track Severe Weather on mobile